sensor_id;sensor_type;location;lat;lon;timestamp;P1;durP1;ratioP1;P2;durP2;ratioP2
59312;SDS011;45084;51.486;7.366;2023-12-07T00:00:31;70.45;;;33.22;;
59312;SDS011;45084;51.486;7.366;2023-12-07T00:02:57;74.53;;;36.28;;
59312;SDS011;45084;51.486;7.366;2023-12-07T00:05:24;67.10;;;34.13;;
59312;SDS011;45084;51.486;7.366;2023-12-07T00:07:50;71.10;;;35.40;;
59312;SDS011;45084;51.486;7.366;2023-12-07T00:10:15;74.72;;;34.83;;
59312;SDS011;45084;51.486;7.366;2023-12-07T00:12:41;74.78;;;33.78;;
59312;SDS011;45084;51.486;7.366;2023-12-07T00:15:06;71.00;;;34.35;;
59312;SDS011;45084;51.486;7.366;2023-12-07T00:17:32;70.18;;;33.85;;
59312;SDS011;45084;51.486;7.366;2023-12-07T00:19:58;66.68;;;33.20;;
59312;SDS011;45084;51.486;7.366;2023-12-07T00:22:23;69.18;;;34.63;;
59312;SDS011;45084;51.486;7.366;2023-12-07T00:24:50;68.40;;;33.28;;
59312;SDS011;45084;51.486;7.366;2023-12-07T00:27:16;67.00;;;33.78;;
59312;SDS011;45084;51.486;7.366;2023-12-07T00:29:41;61.08;;;31.58;;
59312;SDS011;45084;51.486;7.366;2023-12-07T00:32:07;66.28;;;33.67;;
59312;SDS011;45084;51.486;7.366;2023-12-07T00:34:32;71.28;;;33.00;;
59312;SDS011;45084;51.486;7.366;2023-12-07T00:36:58;71.95;;;34.08;;
59312;SDS011;45084;51.486;7.366;2023-12-07T00:39:24;68.78;;;33.15;;
59312;SDS011;45084;51.486;7.366;2023-12-07T00:41:49;62.65;;;31.55;;
59312;SDS011;45084;51.486;7.366;2023-12-07T00:44:15;73.70;;;32.58;;
59312;SDS011;45084;51.486;7.366;2023-12-07T00:46:40;74.72;;;33.20;;
59312;SDS011;45084;51.486;7.366;2023-12-07T00:49:06;65.85;;;32.40;;
59312;SDS011;45084;51.486;7.366;2023-12-07T00:51:31;72.10;;;33.10;;
59312;SDS011;45084;51.486;7.366;2023-12-07T00:53:57;70.30;;;31.77;;
59312;SDS011;45084;51.486;7.366;2023-12-07T00:56:23;72.80;;;33.17;;
59312;SDS011;45084;51.486;7.366;2023-12-07T00:58:49;75.35;;;33.65;;
59312;SDS011;45084;51.486;7.366;2023-12-07T01:01:15;68.47;;;33.40;;
59312;SDS011;45084;51.486;7.366;2023-12-07T01:03:40;75.32;;;33.53;;
59312;SDS011;45084;51.486;7.366;2023-12-07T01:06:06;63.60;;;32.70;;
59312;SDS011;45084;51.486;7.366;2023-12-07T01:08:32;62.17;;;31.13;;
59312;SDS011;45084;51.486;7.366;2023-12-07T01:10:58;66.63;;;33.53;;
59312;SDS011;45084;51.486;7.366;2023-12-07T01:13:23;68.18;;;32.70;;
59312;SDS011;45084;51.486;7.366;2023-12-07T01:15:49;66.13;;;33.00;;
59312;SDS011;45084;51.486;7.366;2023-12-07T01:18:15;67.22;;;30.83;;
59312;SDS011;45084;51.486;7.366;2023-12-07T01:20:41;56.92;;;30.33;;
59312;SDS011;45084;51.486;7.366;2023-12-07T01:23:07;65.28;;;32.40;;
59312;SDS011;45084;51.486;7.366;2023-12-07T01:25:35;59.70;;;31.48;;
59312;SDS011;45084;51.486;7.366;2023-12-07T01:28:01;65.45;;;32.50;;
59312;SDS011;45084;51.486;7.366;2023-12-07T01:30:27;63.33;;;30.73;;
59312;SDS011;45084;51.486;7.366;2023-12-07T01:32:52;66.75;;;32.38;;
59312;SDS011;45084;51.486;7.366;2023-12-07T01:35:18;60.08;;;30.35;;
59312;SDS011;45084;51.486;7.366;2023-12-07T01:37:43;62.22;;;32.15;;
59312;SDS011;45084;51.486;7.366;2023-12-07T01:40:09;69.03;;;31.48;;
59312;SDS011;45084;51.486;7.366;2023-12-07T01:42:36;70.45;;;31.60;;
59312;SDS011;45084;51.486;7.366;2023-12-07T01:45:04;61.70;;;32.08;;
59312;SDS011;45084;51.486;7.366;2023-12-07T01:47:31;68.82;;;32.08;;
59312;SDS011;45084;51.486;7.366;2023-12-07T01:49:57;67.30;;;32.17;;
59312;SDS011;45084;51.486;7.366;2023-12-07T01:52:25;68.78;;;31.58;;
59312;SDS011;45084;51.486;7.366;2023-12-07T01:54:53;74.15;;;31.42;;
59312;SDS011;45084;51.486;7.366;2023-12-07T01:57:19;66.90;;;31.15;;
59312;SDS011;45084;51.486;7.366;2023-12-07T01:59:45;67.82;;;32.53;;
59312;SDS011;45084;51.486;7.366;2023-12-07T02:02:11;63.95;;;31.27;;
59312;SDS011;45084;51.486;7.366;2023-12-07T02:04:37;73.18;;;31.08;;
59312;SDS011;45084;51.486;7.366;2023-12-07T02:07:03;62.97;;;31.60;;
59312;SDS011;45084;51.486;7.366;2023-12-07T02:09:31;73.22;;;30.52;;
59312;SDS011;45084;51.486;7.366;2023-12-07T02:11:57;67.07;;;31.55;;
59312;SDS011;45084;51.486;7.366;2023-12-07T02:14:23;59.00;;;30.02;;
59312;SDS011;45084;51.486;7.366;2023-12-07T02:16:50;69.30;;;31.75;;
59312;SDS011;45084;51.486;7.366;2023-12-07T02:22:07;62.40;;;28.77;;
59312;SDS011;45084;51.486;7.366;2023-12-07T02:24:38;60.92;;;29.00;;
59312;SDS011;45084;51.486;7.366;2023-12-07T02:27:35;64.22;;;30.05;;
59312;SDS011;45084;51.486;7.366;2023-12-07T02:30:08;59.67;;;28.17;;
59312;SDS011;45084;51.486;7.366;2023-12-07T02:32:38;67.10;;;29.42;;
59312;SDS011;45084;51.486;7.366;2023-12-07T02:35:08;67.70;;;29.90;;
59312;SDS011;45084;51.486;7.366;2023-12-07T02:37:40;64.82;;;28.88;;
59312;SDS011;45084;51.486;7.366;2023-12-07T02:40:08;66.00;;;28.45;;
59312;SDS011;45084;51.486;7.366;2023-12-07T02:42:35;58.17;;;28.70;;
59312;SDS011;45084;51.486;7.366;2023-12-07T02:45:03;67.18;;;29.08;;
59312;SDS011;45084;51.486;7.366;2023-12-07T02:47:30;60.33;;;27.25;;
59312;SDS011;45084;51.486;7.366;2023-12-07T02:49:55;67.60;;;30.08;;
59312;SDS011;45084;51.486;7.366;2023-12-07T02:52:21;68.70;;;28.58;;
59312;SDS011;45084;51.486;7.366;2023-12-07T02:54:47;70.70;;;28.88;;
59312;SDS011;45084;51.486;7.366;2023-12-07T02:57:13;72.22;;;30.30;;
59312;SDS011;45084;51.486;7.366;2023-12-07T02:59:39;65.47;;;29.40;;
59312;SDS011;45084;51.486;7.366;2023-12-07T03:02:05;62.17;;;27.65;;
59312;SDS011;45084;51.486;7.366;2023-12-07T03:04:31;67.50;;;29.52;;
59312;SDS011;45084;51.486;7.366;2023-12-07T03:06:57;76.47;;;30.88;;
59312;SDS011;45084;51.486;7.366;2023-12-07T03:09:23;70.00;;;29.90;;
59312;SDS011;45084;51.486;7.366;2023-12-07T03:11:49;67.88;;;29.42;;
59312;SDS011;45084;51.486;7.366;2023-12-07T03:14:14;66.97;;;29.08;;
59312;SDS011;45084;51.486;7.366;2023-12-07T03:16:40;70.07;;;29.52;;
59312;SDS011;45084;51.486;7.366;2023-12-07T03:19:05;69.15;;;29.55;;
59312;SDS011;45084;51.486;7.366;2023-12-07T03:21:31;62.67;;;27.73;;
59312;SDS011;45084;51.486;7.366;2023-12-07T03:23:57;71.35;;;30.25;;
59312;SDS011;45084;51.486;7.366;2023-12-07T03:26:22;68.88;;;28.17;;
59312;SDS011;45084;51.486;7.366;2023-12-07T03:28:48;68.05;;;27.52;;
59312;SDS011;45084;51.486;7.366;2023-12-07T03:31:13;66.40;;;28.40;;
59312;SDS011;45084;51.486;7.366;2023-12-07T03:33:41;66.28;;;28.35;;
59312;SDS011;45084;51.486;7.366;2023-12-07T03:36:07;69.80;;;27.52;;
59312;SDS011;45084;51.486;7.366;2023-12-07T03:38:35;59.17;;;26.67;;
59312;SDS011;45084;51.486;7.366;2023-12-07T03:41:01;66.28;;;26.52;;
59312;SDS011;45084;51.486;7.366;2023-12-07T03:43:27;55.00;;;24.52;;
59312;SDS011;45084;51.486;7.366;2023-12-07T03:45:52;55.15;;;25.02;;
59312;SDS011;45084;51.486;7.366;2023-12-07T03:48:18;63.85;;;25.70;;
59312;SDS011;45084;51.486;7.366;2023-12-07T03:50:43;55.75;;;24.13;;
59312;SDS011;45084;51.486;7.366;2023-12-07T03:53:09;62.83;;;24.73;;
59312;SDS011;45084;51.486;7.366;2023-12-07T03:55:34;60.40;;;25.67;;
59312;SDS011;45084;51.486;7.366;2023-12-07T03:58:01;58.78;;;25.65;;
59312;SDS011;45084;51.486;7.366;2023-12-07T04:00:27;61.08;;;25.48;;
59312;SDS011;45084;51.486;7.366;2023-12-07T04:02:52;59.20;;;25.27;;
59312;SDS011;45084;51.486;7.366;2023-12-07T04:05:18;59.67;;;26.83;;
59312;SDS011;45084;51.486;7.366;2023-12-07T04:07:44;56.35;;;26.33;;
59312;SDS011;45084;51.486;7.366;2023-12-07T04:10:09;69.60;;;26.33;;
59312;SDS011;45084;51.486;7.366;2023-12-07T04:12:35;59.97;;;25.85;;
59312;SDS011;45084;51.486;7.366;2023-12-07T04:15:01;60.40;;;25.92;;
59312;SDS011;45084;51.486;7.366;2023-12-07T04:17:26;63.45;;;27.63;;
59312;SDS011;45084;51.486;7.366;2023-12-07T04:19:52;64.68;;;27.27;;
59312;SDS011;45084;51.486;7.366;2023-12-07T04:22:17;59.13;;;26.83;;
59312;SDS011;45084;51.486;7.366;2023-12-07T04:24:43;56.80;;;26.25;;
59312;SDS011;45084;51.486;7.366;2023-12-07T04:27:09;60.78;;;26.55;;
59312;SDS011;45084;51.486;7.366;2023-12-07T04:29:35;58.40;;;26.13;;
59312;SDS011;45084;51.486;7.366;2023-12-07T04:32:01;56.70;;;26.17;;
59312;SDS011;45084;51.486;7.366;2023-12-07T04:34:27;59.13;;;26.27;;
59312;SDS011;45084;51.486;7.366;2023-12-07T04:36:52;63.03;;;25.77;;
59312;SDS011;45084;51.486;7.366;2023-12-07T04:39:18;58.10;;;24.40;;
59312;SDS011;45084;51.486;7.366;2023-12-07T04:41:44;52.28;;;24.10;;
59312;SDS011;45084;51.486;7.366;2023-12-07T04:44:09;59.05;;;25.67;;
59312;SDS011;45084;51.486;7.366;2023-12-07T04:46:35;55.92;;;24.90;;
59312;SDS011;45084;51.486;7.366;2023-12-07T04:49:01;55.33;;;24.15;;
59312;SDS011;45084;51.486;7.366;2023-12-07T04:51:26;59.83;;;25.55;;
59312;SDS011;45084;51.486;7.366;2023-12-07T04:53:52;55.25;;;24.35;;
59312;SDS011;45084;51.486;7.366;2023-12-07T04:56:17;55.22;;;24.38;;
59312;SDS011;45084;51.486;7.366;2023-12-07T04:58:43;49.72;;;22.58;;
59312;SDS011;45084;51.486;7.366;2023-12-07T05:01:09;51.35;;;22.60;;
59312;SDS011;45084;51.486;7.366;2023-12-07T05:03:34;48.63;;;23.13;;
59312;SDS011;45084;51.486;7.366;2023-12-07T05:06:00;45.38;;;21.35;;
59312;SDS011;45084;51.486;7.366;2023-12-07T05:08:25;44.83;;;21.80;;
59312;SDS011;45084;51.486;7.366;2023-12-07T05:10:51;44.30;;;22.27;;
59312;SDS011;45084;51.486;7.366;2023-12-07T05:13:17;43.47;;;22.42;;
59312;SDS011;45084;51.486;7.366;2023-12-07T05:15:43;47.50;;;23.58;;
59312;SDS011;45084;51.486;7.366;2023-12-07T05:18:08;48.03;;;23.00;;
59312;SDS011;45084;51.486;7.366;2023-12-07T05:20:34;41.33;;;21.30;;
59312;SDS011;45084;51.486;7.366;2023-12-07T05:23:03;40.55;;;21.33;;
59312;SDS011;45084;51.486;7.366;2023-12-07T05:25:31;42.58;;;21.13;;
59312;SDS011;45084;51.486;7.366;2023-12-07T05:27:57;42.28;;;21.40;;
59312;SDS011;45084;51.486;7.366;2023-12-07T05:30:23;41.00;;;19.60;;
59312;SDS011;45084;51.486;7.366;2023-12-07T05:32:49;40.25;;;19.73;;
59312;SDS011;45084;51.486;7.366;2023-12-07T05:35:15;40.72;;;21.10;;
59312;SDS011;45084;51.486;7.366;2023-12-07T05:37:41;36.47;;;19.90;;
59312;SDS011;45084;51.486;7.366;2023-12-07T05:40:07;36.17;;;19.10;;
59312;SDS011;45084;51.486;7.366;2023-12-07T05:42:34;31.75;;;18.55;;
59312;SDS011;45084;51.486;7.366;2023-12-07T05:45:00;33.55;;;18.27;;
59312;SDS011;45084;51.486;7.366;2023-12-07T05:47:26;32.97;;;17.15;;
59312;SDS011;45084;51.486;7.366;2023-12-07T05:49:52;35.75;;;19.33;;
59312;SDS011;45084;51.486;7.366;2023-12-07T05:52:17;30.55;;;18.45;;
59312;SDS011;45084;51.486;7.366;2023-12-07T05:54:43;31.70;;;18.30;;
59312;SDS011;45084;51.486;7.366;2023-12-07T05:57:12;32.08;;;17.67;;
59312;SDS011;45084;51.486;7.366;2023-12-07T05:59:38;32.28;;;16.80;;
59312;SDS011;45084;51.486;7.366;2023-12-07T06:02:04;32.80;;;17.52;;
59312;SDS011;45084;51.486;7.366;2023-12-07T06:04:30;34.38;;;19.05;;
59312;SDS011;45084;51.486;7.366;2023-12-07T06:06:56;31.83;;;18.15;;
59312;SDS011;45084;51.486;7.366;2023-12-07T06:09:21;31.40;;;17.08;;
59312;SDS011;45084;51.486;7.366;2023-12-07T06:11:47;32.45;;;18.42;;
59312;SDS011;45084;51.486;7.366;2023-12-07T06:14:13;35.00;;;18.30;;
59312;SDS011;45084;51.486;7.366;2023-12-07T06:16:39;35.80;;;19.15;;
59312;SDS011;45084;51.486;7.366;2023-12-07T06:19:04;32.33;;;18.55;;
59312;SDS011;45084;51.486;7.366;2023-12-07T06:21:30;32.25;;;18.38;;
59312;SDS011;45084;51.486;7.366;2023-12-07T06:23:56;38.33;;;19.25;;
59312;SDS011;45084;51.486;7.366;2023-12-07T06:26:23;38.95;;;19.65;;
59312;SDS011;45084;51.486;7.366;2023-12-07T06:28:49;32.47;;;18.13;;
59312;SDS011;45084;51.486;7.366;2023-12-07T06:31:15;34.75;;;18.17;;
59312;SDS011;45084;51.486;7.366;2023-12-07T06:33:44;37.80;;;19.98;;
59312;SDS011;45084;51.486;7.366;2023-12-07T06:36:10;38.78;;;20.25;;
59312;SDS011;45084;51.486;7.366;2023-12-07T06:38:36;34.97;;;18.15;;
59312;SDS011;45084;51.486;7.366;2023-12-07T06:41:03;34.42;;;18.40;;
59312;SDS011;45084;51.486;7.366;2023-12-07T06:43:29;37.03;;;18.35;;
59312;SDS011;45084;51.486;7.366;2023-12-07T06:45:54;36.15;;;18.73;;
59312;SDS011;45084;51.486;7.366;2023-12-07T06:48:20;35.38;;;18.13;;
59312;SDS011;45084;51.486;7.366;2023-12-07T06:50:46;46.20;;;19.00;;
59312;SDS011;45084;51.486;7.366;2023-12-07T06:53:12;39.63;;;19.25;;
59312;SDS011;45084;51.486;7.366;2023-12-07T06:55:39;40.72;;;19.20;;
59312;SDS011;45084;51.486;7.366;2023-12-07T06:58:06;37.10;;;19.38;;
59312;SDS011;45084;51.486;7.366;2023-12-07T07:00:31;39.55;;;18.90;;
59312;SDS011;45084;51.486;7.366;2023-12-07T07:02:58;39.35;;;19.02;;
59312;SDS011;45084;51.486;7.366;2023-12-07T07:05:23;35.50;;;18.15;;
59312;SDS011;45084;51.486;7.366;2023-12-07T07:07:49;39.97;;;20.33;;
59312;SDS011;45084;51.486;7.366;2023-12-07T07:10:16;42.83;;;20.65;;
59312;SDS011;45084;51.486;7.366;2023-12-07T07:12:42;43.72;;;21.02;;
59312;SDS011;45084;51.486;7.366;2023-12-07T07:15:07;43.80;;;21.35;;
59312;SDS011;45084;51.486;7.366;2023-12-07T07:17:33;51.60;;;25.23;;
59312;SDS011;45084;51.486;7.366;2023-12-07T07:19:59;60.53;;;26.48;;
59312;SDS011;45084;51.486;7.366;2023-12-07T07:22:28;54.13;;;25.15;;
59312;SDS011;45084;51.486;7.366;2023-12-07T07:24:53;51.33;;;24.33;;
59312;SDS011;45084;51.486;7.366;2023-12-07T07:27:19;48.15;;;23.40;;
59312;SDS011;45084;51.486;7.366;2023-12-07T07:29:44;43.35;;;21.33;;
59312;SDS011;45084;51.486;7.366;2023-12-07T07:32:11;45.60;;;20.20;;
59312;SDS011;45084;51.486;7.366;2023-12-07T07:34:36;37.67;;;19.23;;
59312;SDS011;45084;51.486;7.366;2023-12-07T07:37:02;42.85;;;19.63;;
59312;SDS011;45084;51.486;7.366;2023-12-07T07:39:28;38.40;;;18.42;;
59312;SDS011;45084;51.486;7.366;2023-12-07T07:41:53;40.20;;;18.13;;
59312;SDS011;45084;51.486;7.366;2023-12-07T07:44:19;44.92;;;19.77;;
59312;SDS011;45084;51.486;7.366;2023-12-07T07:46:44;42.90;;;19.50;;
59312;SDS011;45084;51.486;7.366;2023-12-07T07:49:11;43.95;;;18.27;;
59312;SDS011;45084;51.486;7.366;2023-12-07T07:51:37;43.17;;;19.02;;
59312;SDS011;45084;51.486;7.366;2023-12-07T07:54:03;47.30;;;21.17;;
59312;SDS011;45084;51.486;7.366;2023-12-07T07:56:29;54.92;;;21.85;;
59312;SDS011;45084;51.486;7.366;2023-12-07T07:58:54;54.75;;;23.10;;
59312;SDS011;45084;51.486;7.366;2023-12-07T08:01:20;47.22;;;21.38;;
59312;SDS011;45084;51.486;7.366;2023-12-07T08:03:46;53.22;;;23.20;;
59312;SDS011;45084;51.486;7.366;2023-12-07T08:06:12;50.20;;;20.88;;
59312;SDS011;45084;51.486;7.366;2023-12-07T08:08:37;53.25;;;21.92;;
59312;SDS011;45084;51.486;7.366;2023-12-07T08:11:03;51.70;;;23.25;;
59312;SDS011;45084;51.486;7.366;2023-12-07T08:13:30;52.33;;;22.33;;
59312;SDS011;45084;51.486;7.366;2023-12-07T08:15:55;50.63;;;22.50;;
59312;SDS011;45084;51.486;7.366;2023-12-07T08:18:21;60.50;;;24.85;;
59312;SDS011;45084;51.486;7.366;2023-12-07T08:20:47;59.22;;;25.10;;
59312;SDS011;45084;51.486;7.366;2023-12-07T08:23:14;56.28;;;24.75;;
59312;SDS011;45084;51.486;7.366;2023-12-07T08:25:40;55.30;;;25.35;;
59312;SDS011;45084;51.486;7.366;2023-12-07T08:28:05;55.65;;;24.10;;
59312;SDS011;45084;51.486;7.366;2023-12-07T08:30:34;53.83;;;24.88;;
59312;SDS011;45084;51.486;7.366;2023-12-07T08:33:00;59.33;;;26.27;;
59312;SDS011;45084;51.486;7.366;2023-12-07T08:35:25;66.18;;;27.98;;
59312;SDS011;45084;51.486;7.366;2023-12-07T08:37:51;61.80;;;26.88;;
59312;SDS011;45084;51.486;7.366;2023-12-07T08:40:16;63.45;;;28.23;;
59312;SDS011;45084;51.486;7.366;2023-12-07T08:42:45;64.03;;;29.83;;
59312;SDS011;45084;51.486;7.366;2023-12-07T08:45:12;59.22;;;26.85;;
59312;SDS011;45084;51.486;7.366;2023-12-07T08:47:39;58.08;;;26.00;;
59312;SDS011;45084;51.486;7.366;2023-12-07T08:50:05;58.58;;;27.08;;
59312;SDS011;45084;51.486;7.366;2023-12-07T08:52:32;70.45;;;26.52;;
59312;SDS011;45084;51.486;7.366;2023-12-07T08:54:58;62.28;;;25.98;;
59312;SDS011;45084;51.486;7.366;2023-12-07T08:57:24;58.67;;;26.75;;
59312;SDS011;45084;51.486;7.366;2023-12-07T08:59:50;59.78;;;25.65;;
59312;SDS011;45084;51.486;7.366;2023-12-07T09:02:15;60.03;;;27.25;;
59312;SDS011;45084;51.486;7.366;2023-12-07T09:04:41;59.03;;;26.98;;
59312;SDS011;45084;51.486;7.366;2023-12-07T09:07:06;57.25;;;27.65;;
59312;SDS011;45084;51.486;7.366;2023-12-07T09:09:32;51.03;;;25.67;;
59312;SDS011;45084;51.486;7.366;2023-12-07T09:11:57;54.08;;;27.05;;
59312;SDS011;45084;51.486;7.366;2023-12-07T09:14:23;47.75;;;26.58;;
59312;SDS011;45084;51.486;7.366;2023-12-07T09:16:51;47.63;;;25.52;;
59312;SDS011;45084;51.486;7.366;2023-12-07T09:19:17;45.78;;;23.05;;
59312;SDS011;45084;51.486;7.366;2023-12-07T09:21:43;46.30;;;24.85;;
59312;SDS011;45084;51.486;7.366;2023-12-07T09:24:08;39.42;;;22.83;;
59312;SDS011;45084;51.486;7.366;2023-12-07T09:26:34;43.78;;;22.23;;
59312;SDS011;45084;51.486;7.366;2023-12-07T09:29:00;37.42;;;21.20;;
59312;SDS011;45084;51.486;7.366;2023-12-07T09:31:26;31.02;;;19.13;;
59312;SDS011;45084;51.486;7.366;2023-12-07T09:33:52;31.13;;;19.52;;
59312;SDS011;45084;51.486;7.366;2023-12-07T09:36:18;34.00;;;18.65;;
59312;SDS011;45084;51.486;7.366;2023-12-07T09:38:46;31.17;;;18.60;;
59312;SDS011;45084;51.486;7.366;2023-12-07T09:41:11;32.33;;;19.45;;
59312;SDS011;45084;51.486;7.366;2023-12-07T09:43:37;31.60;;;18.10;;
59312;SDS011;45084;51.486;7.366;2023-12-07T09:46:03;26.70;;;15.38;;
59312;SDS011;45084;51.486;7.366;2023-12-07T09:48:30;28.58;;;17.25;;
59312;SDS011;45084;51.486;7.366;2023-12-07T09:50:56;26.17;;;16.58;;
59312;SDS011;45084;51.486;7.366;2023-12-07T09:53:26;24.17;;;15.52;;
59312;SDS011;45084;51.486;7.366;2023-12-07T09:55:54;23.75;;;15.75;;
59312;SDS011;45084;51.486;7.366;2023-12-07T09:58:19;21.40;;;14.18;;
59312;SDS011;45084;51.486;7.366;2023-12-07T10:00:46;24.08;;;15.40;;
59312;SDS011;45084;51.486;7.366;2023-12-07T10:03:20;22.67;;;14.82;;
59312;SDS011;45084;51.486;7.366;2023-12-07T10:05:53;22.60;;;13.85;;
59312;SDS011;45084;51.486;7.366;2023-12-07T10:08:27;21.38;;;14.48;;
59312;SDS011;45084;51.486;7.366;2023-12-07T10:11:07;21.58;;;13.85;;
59312;SDS011;45084;51.486;7.366;2023-12-07T10:13:34;20.63;;;14.20;;
59312;SDS011;45084;51.486;7.366;2023-12-07T10:16:10;21.00;;;13.77;;
59312;SDS011;45084;51.486;7.366;2023-12-07T10:18:37;23.08;;;14.45;;
59312;SDS011;45084;51.486;7.366;2023-12-07T10:21:05;21.00;;;13.30;;
59312;SDS011;45084;51.486;7.366;2023-12-07T10:23:37;19.48;;;14.00;;
59312;SDS011;45084;51.486;7.366;2023-12-07T10:26:05;20.98;;;13.07;;
59312;SDS011;45084;51.486;7.366;2023-12-07T10:28:31;19.73;;;13.35;;
59312;SDS011;45084;51.486;7.366;2023-12-07T10:31:00;21.48;;;13.88;;
59312;SDS011;45084;51.486;7.366;2023-12-07T10:33:26;20.60;;;14.18;;
59312;SDS011;45084;51.486;7.366;2023-12-07T10:35:52;25.20;;;13.38;;
59312;SDS011;45084;51.486;7.366;2023-12-07T10:38:17;23.23;;;13.15;;
59312;SDS011;45084;51.486;7.366;2023-12-07T10:40:45;18.63;;;12.27;;
59312;SDS011;45084;51.486;7.366;2023-12-07T10:43:12;19.30;;;11.63;;
59312;SDS011;45084;51.486;7.366;2023-12-07T10:45:39;17.40;;;12.00;;
59312;SDS011;45084;51.486;7.366;2023-12-07T10:48:08;18.85;;;11.98;;
59312;SDS011;45084;51.486;7.366;2023-12-07T10:50:36;17.08;;;11.50;;
59312;SDS011;45084;51.486;7.366;2023-12-07T10:53:10;17.02;;;11.25;;
59312;SDS011;45084;51.486;7.366;2023-12-07T10:55:56;14.98;;;11.00;;
59312;SDS011;45084;51.486;7.366;2023-12-07T10:58:25;14.70;;;9.23;;
59312;SDS011;45084;51.486;7.366;2023-12-07T11:00:54;17.75;;;9.02;;
59312;SDS011;45084;51.486;7.366;2023-12-07T11:03:21;13.07;;;9.35;;
59312;SDS011;45084;51.486;7.366;2023-12-07T11:05:48;13.40;;;8.63;;
59312;SDS011;45084;51.486;7.366;2023-12-07T11:08:16;13.70;;;9.50;;
59312;SDS011;45084;51.486;7.366;2023-12-07T11:10:58;13.07;;;8.70;;
59312;SDS011;45084;51.486;7.366;2023-12-07T11:13:37;14.10;;;9.18;;
59312;SDS011;45084;51.486;7.366;2023-12-07T11:16:03;14.27;;;8.25;;
59312;SDS011;45084;51.486;7.366;2023-12-07T11:18:30;11.63;;;8.60;;
59312;SDS011;45084;51.486;7.366;2023-12-07T11:20:56;12.43;;;7.93;;
59312;SDS011;45084;51.486;7.366;2023-12-07T11:23:22;11.57;;;7.43;;
59312;SDS011;45084;51.486;7.366;2023-12-07T11:25:49;12.38;;;8.52;;
59312;SDS011;45084;51.486;7.366;2023-12-07T11:28:16;11.77;;;8.60;;
59312;SDS011;45084;51.486;7.366;2023-12-07T11:30:44;12.48;;;8.35;;
59312;SDS011;45084;51.486;7.366;2023-12-07T11:33:10;13.70;;;8.57;;
59312;SDS011;45084;51.486;7.366;2023-12-07T11:38:28;11.57;;;8.48;;
59312;SDS011;45084;51.486;7.366;2023-12-07T11:40:54;15.18;;;8.65;;
59312;SDS011;45084;51.486;7.366;2023-12-07T11:46:01;13.00;;;8.30;;
59312;SDS011;45084;51.486;7.366;2023-12-07T11:48:27;12.45;;;8.20;;
59312;SDS011;45084;51.486;7.366;2023-12-07T11:53:25;11.23;;;8.15;;
59312;SDS011;45084;51.486;7.366;2023-12-07T11:55:55;10.57;;;7.78;;
59312;SDS011;45084;51.486;7.366;2023-12-07T11:58:23;11.98;;;7.78;;
59312;SDS011;45084;51.486;7.366;2023-12-07T12:00:53;10.18;;;7.65;;
59312;SDS011;45084;51.486;7.366;2023-12-07T12:03:19;11.13;;;7.97;;
59312;SDS011;45084;51.486;7.366;2023-12-07T12:05:45;11.27;;;7.75;;
59312;SDS011;45084;51.486;7.366;2023-12-07T12:08:11;8.82;;;7.03;;
59312;SDS011;45084;51.486;7.366;2023-12-07T12:10:37;10.15;;;8.00;;
59312;SDS011;45084;51.486;7.366;2023-12-07T12:13:05;11.75;;;8.35;;
59312;SDS011;45084;51.486;7.366;2023-12-07T12:15:31;12.25;;;7.70;;
59312;SDS011;45084;51.486;7.366;2023-12-07T12:17:56;10.85;;;8.07;;
59312;SDS011;45084;51.486;7.366;2023-12-07T12:20:26;13.27;;;8.50;;
59312;SDS011;45084;51.486;7.366;2023-12-07T12:22:52;10.13;;;7.75;;
59312;SDS011;45084;51.486;7.366;2023-12-07T12:25:22;9.70;;;7.72;;
59312;SDS011;45084;51.486;7.366;2023-12-07T12:27:51;11.65;;;8.02;;
59312;SDS011;45084;51.486;7.366;2023-12-07T12:30:18;11.40;;;8.15;;
59312;SDS011;45084;51.486;7.366;2023-12-07T12:32:45;11.85;;;8.35;;
59312;SDS011;45084;51.486;7.366;2023-12-07T12:35:12;11.10;;;7.35;;
59312;SDS011;45084;51.486;7.366;2023-12-07T12:37:39;10.93;;;7.95;;
59312;SDS011;45084;51.486;7.366;2023-12-07T12:40:09;11.38;;;7.45;;
59312;SDS011;45084;51.486;7.366;2023-12-07T12:42:36;12.20;;;7.75;;
59312;SDS011;45084;51.486;7.366;2023-12-07T12:45:03;11.57;;;8.57;;
59312;SDS011;45084;51.486;7.366;2023-12-07T12:47:49;11.85;;;7.50;;
59312;SDS011;45084;51.486;7.366;2023-12-07T12:53:04;13.93;;;7.28;;
59312;SDS011;45084;51.486;7.366;2023-12-07T12:55:32;11.60;;;7.15;;
59312;SDS011;45084;51.486;7.366;2023-12-07T12:57:58;13.98;;;7.32;;
59312;SDS011;45084;51.486;7.366;2023-12-07T13:00:25;10.63;;;6.90;;
59312;SDS011;45084;51.486;7.366;2023-12-07T13:02:51;9.98;;;6.57;;
59312;SDS011;45084;51.486;7.366;2023-12-07T13:05:16;13.75;;;6.57;;
59312;SDS011;45084;51.486;7.366;2023-12-07T13:07:43;12.25;;;6.93;;
59312;SDS011;45084;51.486;7.366;2023-12-07T13:10:09;7.93;;;6.28;;
59312;SDS011;45084;51.486;7.366;2023-12-07T13:12:35;8.90;;;6.50;;
59312;SDS011;45084;51.486;7.366;2023-12-07T13:15:01;9.80;;;6.93;;
59312;SDS011;45084;51.486;7.366;2023-12-07T13:17:27;8.48;;;6.35;;
59312;SDS011;45084;51.486;7.366;2023-12-07T13:19:52;10.20;;;6.53;;
59312;SDS011;45084;51.486;7.366;2023-12-07T13:22:19;8.13;;;6.22;;
59312;SDS011;45084;51.486;7.366;2023-12-07T13:24:45;8.80;;;6.15;;
59312;SDS011;45084;51.486;7.366;2023-12-07T13:27:13;9.25;;;6.85;;
59312;SDS011;45084;51.486;7.366;2023-12-07T13:29:40;11.25;;;7.55;;
59312;SDS011;45084;51.486;7.366;2023-12-07T13:32:06;10.30;;;7.15;;
59312;SDS011;45084;51.486;7.366;2023-12-07T13:34:32;10.85;;;7.30;;
59312;SDS011;45084;51.486;7.366;2023-12-07T13:36:58;11.07;;;7.30;;
59312;SDS011;45084;51.486;7.366;2023-12-07T13:39:23;10.65;;;7.20;;
59312;SDS011;45084;51.486;7.366;2023-12-07T13:41:51;13.30;;;7.85;;
59312;SDS011;45084;51.486;7.366;2023-12-07T13:44:17;10.25;;;7.72;;
59312;SDS011;45084;51.486;7.366;2023-12-07T13:46:43;11.05;;;8.27;;
59312;SDS011;45084;51.486;7.366;2023-12-07T13:49:09;11.93;;;7.78;;
59312;SDS011;45084;51.486;7.366;2023-12-07T13:51:36;11.48;;;7.63;;
59312;SDS011;45084;51.486;7.366;2023-12-07T13:54:05;12.25;;;8.45;;
59312;SDS011;45084;51.486;7.366;2023-12-07T13:56:32;11.93;;;8.13;;
59312;SDS011;45084;51.486;7.366;2023-12-07T13:58:59;12.15;;;7.25;;
59312;SDS011;45084;51.486;7.366;2023-12-07T14:01:24;14.02;;;7.75;;
59312;SDS011;45084;51.486;7.366;2023-12-07T14:03:51;12.20;;;7.50;;
59312;SDS011;45084;51.486;7.366;2023-12-07T14:06:24;10.73;;;7.47;;
59312;SDS011;45084;51.486;7.366;2023-12-07T14:08:50;14.70;;;7.40;;
59312;SDS011;45084;51.486;7.366;2023-12-07T14:11:18;14.07;;;7.45;;
59312;SDS011;45084;51.486;7.366;2023-12-07T14:13:44;11.82;;;7.70;;
59312;SDS011;45084;51.486;7.366;2023-12-07T14:16:13;13.05;;;7.78;;
59312;SDS011;45084;51.486;7.366;2023-12-07T14:18:39;10.60;;;7.93;;
59312;SDS011;45084;51.486;7.366;2023-12-07T14:21:05;9.98;;;7.22;;
59312;SDS011;45084;51.486;7.366;2023-12-07T14:23:31;10.93;;;7.80;;
59312;SDS011;45084;51.486;7.366;2023-12-07T14:25:57;10.35;;;6.95;;
59312;SDS011;45084;51.486;7.366;2023-12-07T14:28:23;12.45;;;7.03;;
59312;SDS011;45084;51.486;7.366;2023-12-07T14:30:49;10.20;;;7.05;;
59312;SDS011;45084;51.486;7.366;2023-12-07T14:33:21;10.00;;;7.30;;
59312;SDS011;45084;51.486;7.366;2023-12-07T14:35:46;10.80;;;7.00;;